Time;durP1;ratioP1;P1;durP2;ratioP2;P2;SDS_P1;SDS_P2;PMS_P1;PMS_P2;Temp;Humidity;BMP_temperature;BMP_pressure;BME280_temperature;BME280_humidity;BME280_pressure;Samples;Min_cycle;Max_cycle;Signal;HPM_P1;HPM_P2
2023/10/06 00:01:44;;;;;;;25.33;13.80;;;;;;;;;;5086184;28;20028;-71
2023/10/06 00:04:15;;;;;;;30.05;13.30;;;;;;;;;;5086464;28;20036;-70
2023/10/06 00:06:42;;;;;;;28.50;14.55;;;;;;;;;;5085793;28;20066;-72
2023/10/06 00:09:33;;;;;;;27.75;13.85;;;;;;;;;;5085926;28;20034;-71
2023/10/06 00:11:59;;;;;;;24.95;13.80;;;;;;;;;;5086883;28;20101;-71
2023/10/06 00:14:43;;;;;;;20.45;12.88;;;;;;;;;;5086661;28;20523;-72
2023/10/06 00:17:17;;;;;;;24.08;13.20;;;;;;;;;;5086596;28;20043;-70
2023/10/06 00:19:51;;;;;;;23.05;12.55;;;;;;;;;;5086663;28;20105;-70
2023/10/06 00:22:18;;;;;;;18.50;11.07;;;;;;;;;;5085159;28;20481;-70
2023/10/06 00:24:47;;;;;;;22.67;12.68;;;;;;;;;;5086435;28;20138;-70
2023/10/06 00:27:13;;;;;;;21.52;12.98;;;;;;;;;;5087392;28;20032;-70
2023/10/06 00:29:44;;;;;;;26.60;13.52;;;;;;;;;;5087521;28;20397;-70
2023/10/06 00:32:31;;;;;;;22.80;13.35;;;;;;;;;;5089802;28;20065;-70
2023/10/06 00:38:12;;;;;;;29.63;14.88;;;;;;;;;;5086526;28;20040;-70
2023/10/06 00:40:46;;;;;;;29.20;13.70;;;;;;;;;;5089287;28;20443;-70
2023/10/06 00:43:15;;;;;;;28.73;14.38;;;;;;;;;;5069952;28;20028;-70
2023/10/06 00:45:47;;;;;;;27.27;14.05;;;;;;;;;;5088681;28;20605;-70
2023/10/06 00:48:15;;;;;;;28.90;13.90;;;;;;;;;;5090398;28;20214;-70
2023/10/06 00:50:42;;;;;;;25.65;13.65;;;;;;;;;;5090161;28;20032;-70
2023/10/06 00:53:10;;;;;;;21.33;12.55;;;;;;;;;;5105746;28;20137;-71
2023/10/06 00:55:39;;;;;;;21.42;13.30;;;;;;;;;;5088663;28;20032;-70
2023/10/06 00:58:10;;;;;;;20.13;12.40;;;;;;;;;;5089106;28;20065;-70
2023/10/06 01:00:37;;;;;;;18.15;11.35;;;;;;;;;;5089932;28;20040;-70
2023/10/06 01:03:14;;;;;;;18.95;11.75;;;;;;;;;;5088575;28;20462;-70
2023/10/06 01:05:46;;;;;;;17.23;10.90;;;;;;;;;;5087956;28;20028;-70
2023/10/06 01:08:13;;;;;;;15.10;10.98;;;;;;;;;;5087366;28;20127;-70
2023/10/06 01:10:40;;;;;;;22.05;12.30;;;;;;;;;;5086901;28;20032;-70
2023/10/06 01:13:14;;;;;;;21.15;12.38;;;;;;;;;;5070686;28;20502;-70
2023/10/06 01:15:54;;;;;;;24.95;13.82;;;;;;;;;;5072325;28;20039;-70
2023/10/06 01:18:25;;;;;;;24.70;12.98;;;;;;;;;;5083336;28;20473;-70
2023/10/06 01:20:51;;;;;;;22.77;13.15;;;;;;;;;;5089206;28;20032;-69
2023/10/06 01:23:21;;;;;;;24.90;13.68;;;;;;;;;;5081042;28;20027;-70
2023/10/06 01:25:55;;;;;;;22.33;13.18;;;;;;;;;;5100800;28;20394;-70
2023/10/06 01:28:23;;;;;;;20.30;11.32;;;;;;;;;;5084125;28;20028;-71
2023/10/06 01:30:52;;;;;;;19.05;11.32;;;;;;;;;;5092273;28;20512;-71
2023/10/06 01:33:18;;;;;;;20.88;11.77;;;;;;;;;;5093480;28;20035;-71
2023/10/06 01:35:45;;;;;;;16.98;10.77;;;;;;;;;;5089370;28;20017;-70
2023/10/06 01:38:22;;;;;;;18.92;10.93;;;;;;;;;;5089249;28;20032;-71
2023/10/06 01:40:52;;;;;;;18.90;10.90;;;;;;;;;;5087918;28;20081;-71
2023/10/06 01:43:22;;;;;;;20.52;10.98;;;;;;;;;;5087218;28;20032;-71
2023/10/06 01:45:51;;;;;;;16.08;10.82;;;;;;;;;;5087745;28;20020;-70
2023/10/06 01:50:50;;;;;;;20.15;11.27;;;;;;;;;;5089310;28;20088;-71
2023/10/06 01:53:19;;;;;;;18.17;10.88;;;;;;;;;;5089245;28;20536;-71
2023/10/06 01:55:52;;;;;;;18.98;10.68;;;;;;;;;;5088267;28;20069;-71
2023/10/06 01:58:18;;;;;;;19.40;10.55;;;;;;;;;;5087520;28;20032;-70
2023/10/06 02:00:49;;;;;;;16.15;10.15;;;;;;;;;;5086060;28;20020;-70
2023/10/06 02:03:21;;;;;;;15.60;9.77;;;;;;;;;;5095811;28;20028;-70
2023/10/06 02:05:47;;;;;;;21.08;11.20;;;;;;;;;;5087273;28;20028;-70
2023/10/06 02:08:22;;;;;;;18.13;10.18;;;;;;;;;;5087297;28;20024;-71
2023/10/06 02:10:49;;;;;;;17.05;9.15;;;;;;;;;;5089315;28;20402;-69
2023/10/06 02:13:21;;;;;;;16.30;10.15;;;;;;;;;;5088792;28;20053;-70
2023/10/06 02:16:00;;;;;;;19.92;10.40;;;;;;;;;;5087037;28;20123;-70
2023/10/06 02:18:36;;;;;;;21.98;10.70;;;;;;;;;;5088632;28;20554;-70
2023/10/06 02:21:11;;;;;;;21.77;10.95;;;;;;;;;;5087193;28;20071;-71
2023/10/06 02:23:40;;;;;;;24.13;11.70;;;;;;;;;;5087497;28;20039;-70
2023/10/06 02:26:13;;;;;;;22.27;10.73;;;;;;;;;;5086780;28;20055;-71
2023/10/06 02:28:43;;;;;;;28.83;10.88;;;;;;;;;;5087543;28;20477;-71
2023/10/06 02:31:10;;;;;;;24.80;12.15;;;;;;;;;;5088274;28;20108;-71
2023/10/06 02:33:39;;;;;;;20.77;11.77;;;;;;;;;;5087289;28;20040;-71
2023/10/06 02:39:05;;;;;;;19.15;11.10;;;;;;;;;;5066956;28;20049;-71
2023/10/06 02:41:32;;;;;;;18.95;10.68;;;;;;;;;;5076902;28;20040;-71
2023/10/06 02:44:14;;;;;;;17.73;9.77;;;;;;;;;;5088240;28;20028;-71
2023/10/06 02:46:44;;;;;;;18.33;11.15;;;;;;;;;;5086739;28;20501;-70
2023/10/06 02:49:21;;;;;;;24.58;11.65;;;;;;;;;;5086840;28;20024;-70
2023/10/06 02:51:47;;;;;;;26.77;12.05;;;;;;;;;;5081244;28;20128;-71
2023/10/06 02:56:45;;;;;;;22.27;11.95;;;;;;;;;;5088162;28;20043;-70
2023/10/06 02:59:24;;;;;;;24.40;11.68;;;;;;;;;;5088213;28;20103;-70
2023/10/06 03:01:57;;;;;;;20.27;11.05;;;;;;;;;;5086849;28;20046;-70
2023/10/06 03:04:25;;;;;;;17.48;10.85;;;;;;;;;;5088165;28;20056;-70
2023/10/06 03:06:56;;;;;;;22.25;10.82;;;;;;;;;;5086260;28;20054;-71
2023/10/06 03:09:43;;;;;;;18.17;10.38;;;;;;;;;;5091143;28;20482;-71
2023/10/06 03:12:15;;;;;;;20.40;10.50;;;;;;;;;;5106854;28;20032;-71
2023/10/06 03:14:42;;;;;;;22.67;11.05;;;;;;;;;;5106484;28;20116;-70
2023/10/06 03:17:12;;;;;;;21.58;11.20;;;;;;;;;;5090381;28;20047;-71
2023/10/06 03:19:43;;;;;;;19.40;11.00;;;;;;;;;;5107482;28;20118;-71
2023/10/06 03:22:14;;;;;;;22.90;12.07;;;;;;;;;;5106848;28;20028;-70
2023/10/06 03:24:53;;;;;;;20.65;11.90;;;;;;;;;;5090910;28;20032;-71
2023/10/06 03:27:22;;;;;;;22.02;11.90;;;;;;;;;;5086916;28;20081;-69
2023/10/06 03:29:55;;;;;;;24.65;11.32;;;;;;;;;;5090034;28;20560;-69
2023/10/06 03:32:32;;;;;;;;;;;;;;;;;;5090397;28;20094;-70
2023/10/06 03:37:52;;;;;;;18.38;11.60;;;;;;;;;;5089050;28;20529;-70
2023/10/06 03:40:25;;;;;;;25.85;11.30;;;;;;;;;;5088239;28;20043;-71
2023/10/06 03:42:54;;;;;;;21.17;11.57;;;;;;;;;;5090620;28;20023;-71
2023/10/06 03:45:31;;;;;;;23.80;11.90;;;;;;;;;;5088553;28;20115;-71
2023/10/06 03:48:24;;;;;;;24.83;11.15;;;;;;;;;;5106414;28;20031;-71
2023/10/06 03:50:44;;;;;;;16.50;10.32;;;;;;;;;;5105905;28;20071;-70
2023/10/06 03:53:14;;;;;;;20.05;10.00;;;;;;;;;;5086321;28;20067;-71
2023/10/06 03:55:45;;;;;;;25.50;9.65;;;;;;;;;;5072294;28;20093;-71
2023/10/06 03:58:14;;;;;;;18.52;10.63;;;;;;;;;;5089886;28;20027;-70
2023/10/06 04:00:40;;;;;;;17.38;10.45;;;;;;;;;;5090018;28;20081;-69
2023/10/06 04:03:13;;;;;;;22.05;10.55;;;;;;;;;;5090114;28;20130;-70
2023/10/06 04:05:48;;;;;;;25.23;10.30;;;;;;;;;;5090475;28;20032;-70
2023/10/06 04:08:16;;;;;;;20.35;9.20;;;;;;;;;;5094735;28;20082;-71
2023/10/06 04:10:48;;;;;;;19.38;10.23;;;;;;;;;;5094334;28;20028;-70
2023/10/06 04:13:19;;;;;;;21.50;10.73;;;;;;;;;;5094377;28;20056;-71
2023/10/06 04:15:49;;;;;;;22.30;10.43;;;;;;;;;;5093773;28;20028;-73
2023/10/06 04:18:18;;;;;;;33.70;12.73;;;;;;;;;;5094289;28;20095;-71
2023/10/06 04:20:48;;;;;;;32.47;13.07;;;;;;;;;;5094374;28;20032;-71
2023/10/06 04:23:18;;;;;;;27.73;11.07;;;;;;;;;;5092465;28;20085;-70
2023/10/06 04:25:45;;;;;;;27.85;11.00;;;;;;;;;;5094409;28;20012;-71
2023/10/06 04:28:14;;;;;;;33.50;12.13;;;;;;;;;;5109852;28;20046;-70
2023/10/06 04:30:44;;;;;;;31.60;13.30;;;;;;;;;;5094365;28;20473;-71
2023/10/06 04:33:15;;;;;;;24.15;12.25;;;;;;;;;;5094132;28;20036;-71
2023/10/06 04:38:30;;;;;;;32.55;13.88;;;;;;;;;;5094050;28;20036;-70
2023/10/06 04:40:56;;;;;;;32.00;16.05;;;;;;;;;;5094045;28;20027;-70
2023/10/06 04:43:23;;;;;;;23.05;13.88;;;;;;;;;;5093927;28;20032;-71
2023/10/06 04:45:50;;;;;;;31.23;16.40;;;;;;;;;;5093931;28;20020;-72
2023/10/06 04:48:18;;;;;;;41.20;16.90;;;;;;;;;;5092441;28;20436;-71
2023/10/06 04:50:45;;;;;;;41.30;17.52;;;;;;;;;;5093892;28;20023;-72
2023/10/06 04:53:11;;;;;;;33.58;15.70;;;;;;;;;;5094246;28;20031;-71
2023/10/06 04:55:38;;;;;;;32.35;16.42;;;;;;;;;;5093776;28;20419;-71
2023/10/06 04:58:05;;;;;;;59.33;17.48;;;;;;;;;;5093668;28;20485;-70
2023/10/06 05:00:33;;;;;;;43.13;16.85;;;;;;;;;;5094017;28;20678;-70
2023/10/06 05:02:59;;;;;;;25.05;14.10;;;;;;;;;;5093555;28;20506;-70
2023/10/06 05:05:26;;;;;;;25.85;12.40;;;;;;;;;;5093217;28;20020;-70
2023/10/06 05:07:53;;;;;;;22.20;13.05;;;;;;;;;;5093641;28;20040;-70
2023/10/06 05:10:25;;;;;;;21.40;12.10;;;;;;;;;;5093592;28;20110;-70
2023/10/06 05:12:52;;;;;;;25.88;12.40;;;;;;;;;;5093553;28;20342;-70
2023/10/06 05:15:26;;;;;;;21.05;11.43;;;;;;;;;;5091599;28;20035;-70
2023/10/06 05:17:58;;;;;;;38.08;14.18;;;;;;;;;;5092071;28;20488;-71
2023/10/06 05:20:29;;;;;;;31.67;12.43;;;;;;;;;;5094352;28;20032;-72
2023/10/06 05:23:07;;;;;;;28.92;10.63;;;;;;;;;;5093479;28;20157;-72
2023/10/06 05:25:39;;;;;;;26.10;11.05;;;;;;;;;;5093324;28;20040;-69
2023/10/06 05:28:07;;;;;;;25.90;10.75;;;;;;;;;;5093119;28;20111;-71
2023/10/06 05:30:33;;;;;;;21.48;10.95;;;;;;;;;;5092856;28;20638;-73
2023/10/06 05:33:00;;;;;;;27.45;12.05;;;;;;;;;;5091840;28;20054;-70
2023/10/06 05:35:27;;;;;;;23.63;10.65;;;;;;;;;;5092666;28;20032;-71
2023/10/06 05:37:53;;;;;;;32.40;11.75;;;;;;;;;;5092621;28;20169;-71
2023/10/06 05:40:20;;;;;;;30.13;11.48;;;;;;;;;;5092635;28;20119;-72
2023/10/06 05:42:49;;;;;;;22.23;11.40;;;;;;;;;;5093239;28;20085;-70
2023/10/06 05:45:19;;;;;;;20.27;10.07;;;;;;;;;;5092497;28;20032;-72
2023/10/06 05:47:46;;;;;;;22.20;10.20;;;;;;;;;;5092605;28;20035;-71
2023/10/06 05:50:26;;;;;;;23.75;10.18;;;;;;;;;;5092803;28;20113;-70
2023/10/06 05:53:08;;;;;;;24.65;10.02;;;;;;;;;;5092679;28;20478;-71
2023/10/06 05:55:41;;;;;;;23.85;10.43;;;;;;;;;;5092629;28;20036;-71
2023/10/06 05:58:14;;;;;;;22.48;10.60;;;;;;;;;;5092690;28;20527;-72
2023/10/06 06:00:50;;;;;;;23.27;10.32;;;;;;;;;;5092636;28;20028;-72
2023/10/06 06:03:20;;;;;;;24.80;11.10;;;;;;;;;;5092532;28;20055;-73
2023/10/06 06:06:02;;;;;;;22.30;9.05;;;;;;;;;;5092622;28;20494;-73
2023/10/06 06:08:32;;;;;;;24.88;10.10;;;;;;;;;;5091873;28;20400;-73
2023/10/06 06:10:59;;;;;;;21.80;9.80;;;;;;;;;;5091640;28;20486;-74
2023/10/06 06:13:25;;;;;;;18.65;9.27;;;;;;;;;;5107703;28;20048;-72
2023/10/06 06:15:51;;;;;;;21.13;9.88;;;;;;;;;;5091998;28;20027;-72
2023/10/06 06:18:17;;;;;;;17.73;9.43;;;;;;;;;;5092150;28;20078;-73
2023/10/06 06:20:43;;;;;;;21.85;9.65;;;;;;;;;;5090908;28;20430;-72
2023/10/06 06:23:09;;;;;;;16.60;9.63;;;;;;;;;;5091418;28;20043;-72
2023/10/06 06:25:44;;;;;;;20.83;10.15;;;;;;;;;;5090151;28;20027;-71
2023/10/06 06:28:12;;;;;;;21.92;10.27;;;;;;;;;;5091487;28;20059;-72
2023/10/06 06:30:39;;;;;;;21.00;9.77;;;;;;;;;;5091802;28;20020;-72
2023/10/06 06:33:12;;;;;;;23.17;11.15;;;;;;;;;;5091278;28;20111;-71
2023/10/06 06:35:40;;;;;;;18.85;11.07;;;;;;;;;;5090442;28;20490;-72
2023/10/06 06:38:05;;;;;;;17.20;10.50;;;;;;;;;;5091652;28;20028;-74
2023/10/06 06:40:33;;;;;;;19.50;10.75;;;;;;;;;;5089705;28;20490;-73
2023/10/06 06:43:01;;;;;;;20.88;11.90;;;;;;;;;;5088914;28;20401;-71
2023/10/06 06:45:31;;;;;;;19.20;10.57;;;;;;;;;;5090276;28;20111;-71
2023/10/06 06:48:13;;;;;;;22.95;11.55;;;;;;;;;;5090557;28;20118;-72
2023/10/06 06:50:42;;;;;;;22.55;11.57;;;;;;;;;;5090741;28;20116;-72
2023/10/06 06:53:08;;;;;;;20.20;10.98;;;;;;;;;;5091274;28;20210;-72
2023/10/06 06:55:34;;;;;;;18.60;11.65;;;;;;;;;;5090545;28;20025;-72
2023/10/06 06:58:10;;;;;;;19.90;10.90;;;;;;;;;;5089902;28;20046;-72
2023/10/06 07:00:41;;;;;;;18.42;11.65;;;;;;;;;;5090618;28;20443;-70
2023/10/06 07:03:08;;;;;;;16.77;10.30;;;;;;;;;;5089726;28;20122;-73
2023/10/06 07:05:35;;;;;;;20.63;10.95;;;;;;;;;;5089133;28;20024;-72
2023/10/06 07:08:03;;;;;;;23.58;11.30;;;;;;;;;;5091351;28;20065;-72
2023/10/06 07:10:30;;;;;;;20.88;12.27;;;;;;;;;;5089293;28;20032;-72
2023/10/06 07:12:59;;;;;;;24.85;11.48;;;;;;;;;;5089950;28;20039;-72
2023/10/06 07:15:29;;;;;;;25.00;11.43;;;;;;;;;;5090221;28;20389;-74
2023/10/06 07:17:56;;;;;;;19.92;11.13;;;;;;;;;;5089703;28;20035;-71
2023/10/06 07:20:24;;;;;;;21.52;11.43;;;;;;;;;;5090344;28;20024;-71
2023/10/06 07:22:54;;;;;;;19.85;11.55;;;;;;;;;;5090362;28;20070;-70
2023/10/06 07:25:26;;;;;;;21.27;10.63;;;;;;;;;;5090489;28;20046;-70
2023/10/06 07:27:57;;;;;;;24.17;10.88;;;;;;;;;;5090152;28;20400;-71
2023/10/06 07:30:27;;;;;;;25.70;11.32;;;;;;;;;;5089347;28;20098;-71
2023/10/06 07:32:56;;;;;;;18.58;10.55;;;;;;;;;;5090591;28;20482;-70
2023/10/06 07:35:30;;;;;;;19.52;11.20;;;;;;;;;;5088957;28;20046;-70
2023/10/06 07:37:57;;;;;;;16.52;10.07;;;;;;;;;;5090586;28;20036;-70
2023/10/06 07:40:23;;;;;;;21.83;10.98;;;;;;;;;;5090803;28;20032;-71
2023/10/06 07:42:51;;;;;;;21.42;11.30;;;;;;;;;;5093769;28;20051;-71
2023/10/06 07:45:17;;;;;;;26.80;10.32;;;;;;;;;;5093576;28;20024;-71
2023/10/06 07:47:44;;;;;;;17.27;10.23;;;;;;;;;;5093134;28;20032;-71
2023/10/06 07:50:14;;;;;;;20.85;9.68;;;;;;;;;;5094346;28;20493;-70
2023/10/06 07:52:42;;;;;;;16.15;8.73;;;;;;;;;;5094463;28;20409;-69
2023/10/06 07:55:09;;;;;;;29.05;9.10;;;;;;;;;;5093094;28;20177;-69
2023/10/06 07:57:41;;;;;;;17.48;9.45;;;;;;;;;;5094335;28;20073;-70
2023/10/06 08:00:12;;;;;;;19.17;8.50;;;;;;;;;;5095414;28;20118;-71
2023/10/06 08:02:41;;;;;;;16.05;8.75;;;;;;;;;;5094412;28;20044;-70
2023/10/06 08:05:17;;;;;;;16.50;8.80;;;;;;;;;;5094046;28;20070;-69
2023/10/06 08:07:44;;;;;;;18.30;8.88;;;;;;;;;;5092773;28;20043;-70
2023/10/06 08:10:13;;;;;;;23.52;8.93;;;;;;;;;;5092176;28;20087;-69
2023/10/06 08:12:41;;;;;;;17.85;10.13;;;;;;;;;;5092127;28;20032;-70
2023/10/06 08:15:09;;;;;;;18.55;8.32;;;;;;;;;;5092228;28;20043;-70
2023/10/06 08:17:38;;;;;;;14.95;8.45;;;;;;;;;;5093955;28;20077;-70
2023/10/06 08:20:09;;;;;;;18.27;7.97;;;;;;;;;;5094775;28;20149;-70
2023/10/06 08:22:34;;;;;;;18.85;8.48;;;;;;;;;;5094186;28;20028;-70
2023/10/06 08:25:05;;;;;;;16.20;8.65;;;;;;;;;;5090651;28;20042;-70
2023/10/06 08:27:35;;;;;;;22.02;8.32;;;;;;;;;;5093428;28;20024;-71
2023/10/06 08:30:07;;;;;;;17.15;8.27;;;;;;;;;;5093677;28;20024;-71
2023/10/06 08:32:33;;;;;;;17.35;8.32;;;;;;;;;;5094095;28;20097;-70
2023/10/06 08:34:59;;;;;;;15.52;8.75;;;;;;;;;;5093611;28;20028;-69
2023/10/06 08:37:25;;;;;;;18.30;8.40;;;;;;;;;;5093776;28;20145;-70
2023/10/06 08:39:50;;;;;;;15.00;7.80;;;;;;;;;;5092481;28;20024;-69
2023/10/06 08:42:17;;;;;;;14.90;7.78;;;;;;;;;;5093814;28;20035;-70
2023/10/06 08:44:44;;;;;;;16.27;8.55;;;;;;;;;;5093995;28;20020;-70
2023/10/06 08:47:13;;;;;;;19.17;8.95;;;;;;;;;;5093665;28;20028;-69
2023/10/06 08:49:43;;;;;;;19.40;8.48;;;;;;;;;;5093631;28;20084;-71
2023/10/06 08:52:12;;;;;;;14.90;7.88;;;;;;;;;;5093488;28;20059;-69
2023/10/06 08:54:43;;;;;;;19.63;9.70;;;;;;;;;;5093480;28;20430;-71
2023/10/06 08:57:11;;;;;;;20.80;9.15;;;;;;;;;;5093183;28;20039;-71
2023/10/06 08:59:39;;;;;;;17.50;8.90;;;;;;;;;;5093754;28;20016;-70
2023/10/06 09:02:05;;;;;;;20.92;10.43;;;;;;;;;;5093467;28;20138;-70
2023/10/06 09:04:35;;;;;;;22.50;10.07;;;;;;;;;;5093579;28;20442;-70
2023/10/06 09:07:12;;;;;;;20.67;10.00;;;;;;;;;;5092818;28;20125;-69
2023/10/06 09:09:42;;;;;;;16.75;9.85;;;;;;;;;;5093384;28;20031;-69
2023/10/06 09:12:21;;;;;;;22.75;10.35;;;;;;;;;;5092822;28;20074;-70
2023/10/06 09:14:54;;;;;;;20.92;9.48;;;;;;;;;;5093114;28;20055;-70
2023/10/06 09:17:30;;;;;;;18.13;9.65;;;;;;;;;;5093236;28;20111;-70
2023/10/06 09:19:56;;;;;;;18.58;9.35;;;;;;;;;;5093481;28;20035;-71
2023/10/06 09:22:28;;;;;;;19.35;9.48;;;;;;;;;;5093324;28;20055;-71
2023/10/06 09:25:04;;;;;;;16.13;8.80;;;;;;;;;;5092876;28;20486;-70
2023/10/06 09:27:32;;;;;;;14.15;8.65;;;;;;;;;;5092610;28;20036;-71
2023/10/06 09:30:07;;;;;;;20.50;8.65;;;;;;;;;;5092768;28;20028;-71
2023/10/06 09:32:34;;;;;;;19.95;8.05;;;;;;;;;;5107134;28;20032;-70
2023/10/06 09:35:17;;;;;;;17.00;8.93;;;;;;;;;;5092088;28;20469;-71
2023/10/06 09:37:44;;;;;;;19.33;9.10;;;;;;;;;;5093106;28;20048;-70
2023/10/06 09:40:18;;;;;;;16.95;9.15;;;;;;;;;;5092365;28;20036;-70
2023/10/06 09:42:47;;;;;;;16.60;8.43;;;;;;;;;;5092163;28;20442;-70
2023/10/06 09:45:17;;;;;;;17.23;7.82;;;;;;;;;;5092126;28;20032;-70
2023/10/06 09:47:51;;;;;;;16.17;7.95;;;;;;;;;;5091603;28;20043;-70
2023/10/06 09:50:19;;;;;;;16.50;6.85;;;;;;;;;;5092672;28;20039;-70
2023/10/06 09:52:47;;;;;;;15.77;8.27;;;;;;;;;;5091425;28;20592;-70
2023/10/06 09:55:21;;;;;;;15.32;7.43;;;;;;;;;;5092361;28;20061;-70
2023/10/06 09:57:48;;;;;;;17.65;9.38;;;;;;;;;;5092357;28;20035;-69
2023/10/06 10:00:18;;;;;;;16.10;7.50;;;;;;;;;;5091934;28;20024;-70
2023/10/06 10:02:46;;;;;;;20.42;9.13;;;;;;;;;;5091677;28;20039;-69
2023/10/06 10:05:13;;;;;;;16.00;7.78;;;;;;;;;;5091744;28;20471;-70
2023/10/06 10:07:43;;;;;;;13.15;8.30;;;;;;;;;;5091987;28;20040;-70
2023/10/06 10:10:10;;;;;;;17.60;8.60;;;;;;;;;;5092056;28;20077;-71
2023/10/06 10:12:42;;;;;;;11.88;7.07;;;;;;;;;;5091541;28;20138;-70
2023/10/06 10:15:19;;;;;;;14.25;8.77;;;;;;;;;;5089142;28;20028;-71
2023/10/06 10:18:14;;;;;;;16.10;8.13;;;;;;;;;;5091282;28;20121;-71
2023/10/06 10:20:40;;;;;;;17.55;9.50;;;;;;;;;;5091546;28;20040;-70
2023/10/06 10:23:06;;;;;;;14.43;7.78;;;;;;;;;;5090954;28;20378;-70
2023/10/06 10:25:36;;;;;;;11.85;7.15;;;;;;;;;;5089802;28;20039;-70
2023/10/06 10:28:26;;;;;;;13.27;6.80;;;;;;;;;;5092295;28;20024;-69
2023/10/06 10:31:03;;;;;;;19.13;8.52;;;;;;;;;;5092095;28;20162;-71
2023/10/06 10:33:37;;;;;;;14.55;7.43;;;;;;;;;;5092293;28;20054;-70
2023/10/06 10:36:18;;;;;;;14.13;7.38;;;;;;;;;;5092028;28;20551;-71
2023/10/06 10:38:45;;;;;;;18.92;9.63;;;;;;;;;;5092332;28;20139;-72
2023/10/06 10:41:11;;;;;;;14.88;8.60;;;;;;;;;;5091998;28;20466;-72
2023/10/06 10:43:37;;;;;;;17.15;8.23;;;;;;;;;;5090623;28;20382;-71
2023/10/06 10:46:08;;;;;;;17.75;9.85;;;;;;;;;;5090925;28;20016;-71
2023/10/06 10:48:37;;;;;;;17.80;9.20;;;;;;;;;;5091759;28;20051;-71
2023/10/06 10:51:12;;;;;;;27.38;12.13;;;;;;;;;;5083478;28;20027;-71
2023/10/06 10:53:43;;;;;;;21.27;9.60;;;;;;;;;;5091412;28;20031;-71
2023/10/06 10:56:13;;;;;;;23.77;10.48;;;;;;;;;;5091254;28;20046;-70
2023/10/06 10:58:44;;;;;;;20.27;8.88;;;;;;;;;;5091630;28;20085;-70
2023/10/06 11:01:31;;;;;;;21.42;10.18;;;;;;;;;;5091549;28;20028;-69
2023/10/06 11:04:18;;;;;;;18.23;10.35;;;;;;;;;;5091436;28;20386;-70
2023/10/06 11:06:46;;;;;;;15.68;9.63;;;;;;;;;;5091467;28;20038;-69
2023/10/06 11:09:39;;;;;;;13.40;8.43;;;;;;;;;;5091451;28;20034;-70
2023/10/06 11:12:19;;;;;;;16.83;8.32;;;;;;;;;;5091222;28;20108;-70
2023/10/06 11:14:46;;;;;;;13.20;7.47;;;;;;;;;;5090303;28;20047;-71
2023/10/06 11:17:12;;;;;;;16.15;9.05;;;;;;;;;;5090195;28;20020;-70
2023/10/06 11:19:40;;;;;;;15.50;9.15;;;;;;;;;;5091643;28;20063;-70
2023/10/06 11:22:22;;;;;;;17.90;9.48;;;;;;;;;;5091408;28;20028;-70
2023/10/06 11:24:50;;;;;;;14.55;8.23;;;;;;;;;;5091437;28;20040;-71
2023/10/06 11:27:21;;;;;;;16.35;7.72;;;;;;;;;;5091379;28;20494;-71
2023/10/06 11:29:50;;;;;;;16.27;8.57;;;;;;;;;;5091070;28;20040;-71
2023/10/06 11:32:18;;;;;;;19.35;8.18;;;;;;;;;;5091119;28;20392;-71
2023/10/06 11:34:48;;;;;;;18.77;10.02;;;;;;;;;;5091096;28;20040;-72
2023/10/06 11:37:22;;;;;;;20.65;9.82;;;;;;;;;;5091435;28;20370;-73
2023/10/06 11:39:52;;;;;;;21.02;9.20;;;;;;;;;;5091183;28;20042;-72
2023/10/06 11:42:32;;;;;;;40.20;16.20;;;;;;;;;;5090018;28;20171;-72
2023/10/06 11:44:59;;;;;;;21.63;9.40;;;;;;;;;;5089890;28;20039;-71
2023/10/06 11:47:28;;;;;;;19.73;9.32;;;;;;;;;;5090941;28;20020;-73
2023/10/06 11:50:01;;;;;;;16.27;9.05;;;;;;;;;;5090859;28;20028;-71
2023/10/06 11:52:27;;;;;;;18.90;9.20;;;;;;;;;;5091103;28;20136;-71
2023/10/06 11:54:54;;;;;;;15.48;8.25;;;;;;;;;;5091249;28;20433;-71
2023/10/06 11:57:46;;;;;;;13.38;7.18;;;;;;;;;;5091350;28;20369;-72
2023/10/06 12:00:19;;;;;;;15.30;8.40;;;;;;;;;;5090119;28;20139;-73
2023/10/06 12:02:45;;;;;;;13.60;8.10;;;;;;;;;;5090131;28;20031;-71
2023/10/06 12:05:11;;;;;;;18.73;8.65;;;;;;;;;;5090739;28;20095;-72
2023/10/06 12:07:38;;;;;;;19.95;8.95;;;;;;;;;;5090642;28;20456;-71
2023/10/06 12:10:05;;;;;;;15.68;8.30;;;;;;;;;;5091119;28;20428;-72
2023/10/06 12:12:30;;;;;;;18.98;7.70;;;;;;;;;;5089663;28;20040;-71
2023/10/06 12:14:56;;;;;;;20.98;9.10;;;;;;;;;;5091122;28;20046;-71
2023/10/06 12:17:23;;;;;;;15.88;8.48;;;;;;;;;;5090966;28;20177;-70
2023/10/06 12:19:49;;;;;;;14.05;7.78;;;;;;;;;;5091364;28;20024;-72
2023/10/06 12:22:16;;;;;;;17.30;8.48;;;;;;;;;;5091035;28;20367;-71
2023/10/06 12:24:42;;;;;;;16.25;7.90;;;;;;;;;;5090854;28;20028;-71
2023/10/06 12:27:09;;;;;;;14.70;8.43;;;;;;;;;;5093931;28;20088;-71
2023/10/06 12:29:35;;;;;;;17.63;9.10;;;;;;;;;;5095048;28;20470;-72
2023/10/06 12:32:01;;;;;;;12.45;7.47;;;;;;;;;;5094018;28;20036;-71
2023/10/06 12:34:27;;;;;;;27.02;10.07;;;;;;;;;;5094878;28;20028;-73
2023/10/06 12:37:02;;;;;;;16.73;8.25;;;;;;;;;;5094614;28;20115;-71
2023/10/06 12:39:34;;;;;;;21.17;8.63;;;;;;;;;;5094558;28;20032;-73
2023/10/06 12:42:03;;;;;;;18.08;9.00;;;;;;;;;;5094743;28;20441;-72
2023/10/06 12:44:30;;;;;;;22.42;8.05;;;;;;;;;;5094319;28;20505;-72
2023/10/06 12:47:03;;;;;;;13.38;7.43;;;;;;;;;;5094620;28;20121;-74
2023/10/06 12:49:30;;;;;;;;;;;;;;;;;;5094948;28;20667;-71
2023/10/06 12:51:56;;;;;;;13.30;8.40;;;;;;;;;;5094537;28;20369;-73
2023/10/06 12:54:25;;;;;;;15.10;7.72;;;;;;;;;;5094533;28;20422;-72
2023/10/06 12:56:52;;;;;;;12.73;7.47;;;;;;;;;;5093923;28;20077;-71
2023/10/06 12:59:18;;;;;;;17.23;8.27;;;;;;;;;;5094443;28;20028;-71
2023/10/06 13:01:43;;;;;;;12.48;8.10;;;;;;;;;;5094190;28;20036;-73
2023/10/06 13:04:13;;;;;;;14.07;7.03;;;;;;;;;;5094164;28;20043;-72
2023/10/06 13:06:39;;;;;;;19.10;7.90;;;;;;;;;;5093901;28;20149;-73
2023/10/06 13:09:08;;;;;;;15.88;8.45;;;;;;;;;;5093844;28;20032;-72
2023/10/06 13:11:34;;;;;;;16.23;7.85;;;;;;;;;;5094094;28;20024;-72
2023/10/06 13:14:03;;;;;;;15.68;7.60;;;;;;;;;;5093712;28;20403;-72
2023/10/06 13:16:32;;;;;;;15.40;7.18;;;;;;;;;;5093274;28;20501;-72
2023/10/06 13:18:58;;;;;;;15.18;8.15;;;;;;;;;;5093607;28;20028;-73
2023/10/06 13:21:24;;;;;;;11.95;7.70;;;;;;;;;;5090499;28;20492;-72
2023/10/06 13:23:50;;;;;;;17.42;8.55;;;;;;;;;;5093352;28;20035;-72
2023/10/06 13:26:20;;;;;;;16.40;8.40;;;;;;;;;;5093156;28;20020;-72
2023/10/06 13:28:47;;;;;;;18.83;8.70;;;;;;;;;;5093437;28;20036;-71
2023/10/06 13:31:13;;;;;;;22.63;9.27;;;;;;;;;;5093152;28;20034;-72
2023/10/06 13:33:39;;;;;;;21.27;8.93;;;;;;;;;;5091043;28;20028;-71
2023/10/06 13:36:06;;;;;;;20.38;8.52;;;;;;;;;;5092570;28;20384;-72
2023/10/06 13:38:34;;;;;;;16.85;8.77;;;;;;;;;;5099019;28;20035;-75
2023/10/06 13:41:04;;;;;;;19.33;9.07;;;;;;;;;;5092376;28;20099;-73
2023/10/06 13:43:31;;;;;;;20.20;9.68;;;;;;;;;;5092770;28;20481;-73
2023/10/06 13:45:59;;;;;;;19.08;8.85;;;;;;;;;;5092543;28;20023;-73
2023/10/06 13:48:26;;;;;;;14.32;8.30;;;;;;;;;;5092786;28;20444;-73
2023/10/06 13:50:56;;;;;;;14.80;7.55;;;;;;;;;;5092185;28;20020;-73
2023/10/06 13:53:25;;;;;;;12.50;7.60;;;;;;;;;;5091594;28;20065;-72
2023/10/06 13:55:51;;;;;;;14.13;8.32;;;;;;;;;;5090643;28;20028;-73
2023/10/06 13:58:17;;;;;;;13.50;8.27;;;;;;;;;;5093154;28;20036;-73
2023/10/06 14:00:44;;;;;;;18.38;9.88;;;;;;;;;;5092694;28;20506;-72
2023/10/06 14:03:13;;;;;;;17.35;8.68;;;;;;;;;;5092761;28;20040;-72
2023/10/06 14:05:43;;;;;;;17.88;7.97;;;;;;;;;;5092934;28;20046;-72
2023/10/06 14:08:13;;;;;;;14.82;9.00;;;;;;;;;;5093113;28;20063;-72
2023/10/06 14:10:41;;;;;;;16.33;8.68;;;;;;;;;;5092872;28;20051;-72
2023/10/06 14:13:08;;;;;;;17.95;8.85;;;;;;;;;;5092758;28;20357;-71
2023/10/06 14:15:41;;;;;;;12.75;7.00;;;;;;;;;;5092508;28;20040;-72
2023/10/06 14:18:08;;;;;;;16.45;8.60;;;;;;;;;;5092807;28;20043;-73
2023/10/06 14:20:34;;;;;;;14.35;8.38;;;;;;;;;;5092626;28;20492;-73
2023/10/06 14:23:00;;;;;;;20.23;8.38;;;;;;;;;;5092514;28;20040;-73
2023/10/06 14:25:29;;;;;;;13.82;9.07;;;;;;;;;;5092445;28;20028;-73
2023/10/06 14:27:56;;;;;;;15.25;9.40;;;;;;;;;;5092366;28;20035;-72
2023/10/06 14:30:25;;;;;;;16.55;9.20;;;;;;;;;;5091264;28;20451;-72
2023/10/06 14:46:26;;;;;;;17.08;11.07;;;;;;;;;;5091962;28;20021;-72
2023/10/06 14:48:53;;;;;;;17.33;9.60;;;;;;;;;;5091435;28;20081;-71
2023/10/06 14:51:19;;;;;;;16.95;9.77;;;;;;;;;;5092047;28;20032;-71
2023/10/06 14:53:45;;;;;;;15.07;8.68;;;;;;;;;;5091810;28;20020;-71
2023/10/06 14:56:11;;;;;;;14.48;8.75;;;;;;;;;;5091311;28;20131;-72
2023/10/06 14:58:40;;;;;;;17.85;8.40;;;;;;;;;;5090966;28;20115;-71
2023/10/06 15:01:06;;;;;;;15.80;8.82;;;;;;;;;;5089370;28;20039;-71
2023/10/06 15:03:33;;;;;;;14.40;8.73;;;;;;;;;;5090841;28;20028;-71
2023/10/06 15:06:10;;;;;;;21.70;10.27;;;;;;;;;;5091991;28;20123;-72
2023/10/06 15:08:37;;;;;;;21.05;9.48;;;;;;;;;;5090219;28;20909;-71
2023/10/06 15:11:02;;;;;;;18.45;10.13;;;;;;;;;;5091691;28;20366;-71